Terminal Aerodrome Forecast
Issued by NWS

Home | Current Version | Previous Version | Text Only | Print | Product List | Glossary On
Versions: 1 2 3 4 5 6 7 8 9 10 11 12 13 14 15 16 17
000
FTUS46 KSEW 231800 AAA
TAFCLM
TAF AMD
KCLM 231849Z 2319/2418 VRB03KT 5SM -RA BR BKN002 OVC020
      TEMPO 2319/2322 3/4SM -RA BR
     FM232200 VRB04KT P6SM -SHRA OVC030
     FM240300 VRB03KT 5SM -RA BR OVC025
     FM240600 VRB04KT 4SM -RA BR OVC012
     FM241100 VRB04KT P6SM -SHRA BKN025 OVC050=

USA.gov is the U.S. government's official web portal to all federal, state and local government web resources and services.